Botosani, Romania
Current Conditions -  °F | °C
As of 4:00 PM on Friday 24 Oct 2014 (Local Time) from LRSV Reporting Station
Light Snow Light Snow  
Wind Chill: 18°   Ceiling: 300
Heat Index: 28°   Visibility: 1.8mi
Dew Point: 28°   Wind: 12mph
Humidity: 100%   Direction: 20°NNE
Pressure: 30.27"   Gusts: NA
Location:  47.75°N, 26.67°E
Report Text: LRSV 241300Z 02010KT 360V080 3000 -SN BR BKN003 OVC015M02/M02 Q1025
Loading
Personal Weather Stations






























Interactive Weather Map
Tropical Storm Tracking
New forecast layout! Learn more

10-Day Weather Forecast

Advertisements
Track Severe Weather on mobile